createdAt,value
2018-04-20T00:01:02.727Z,8.27
2018-04-20T00:03:30.167Z,8.30
2018-04-20T00:05:57.602Z,8.43
2018-04-20T00:08:25.030Z,7.67
2018-04-20T00:10:52.517Z,8.10
2018-04-20T00:13:19.952Z,9.20
2018-04-20T00:15:47.377Z,8.40
2018-04-20T00:18:14.803Z,8.60
2018-04-20T00:20:42.389Z,8.17
2018-04-20T00:23:09.808Z,8.63
2018-04-20T00:25:37.324Z,8.77
2018-04-20T00:28:04.753Z,8.50
2018-04-20T00:30:32.236Z,7.80
2018-04-20T00:32:59.682Z,8.60
2018-04-20T00:35:27.117Z,9.20
2018-04-20T00:37:54.542Z,9.07
2018-04-20T00:40:21.986Z,9.47
2018-04-20T00:42:49.424Z,9.53
2018-04-20T00:45:16.859Z,10.00
2018-04-20T00:47:44.303Z,9.60
2018-04-20T00:50:11.797Z,10.87
2018-04-20T00:52:39.228Z,10.07
2018-04-20T00:55:06.720Z,9.80
2018-04-20T00:57:34.194Z,10.90
2018-04-20T01:00:01.604Z,10.70
2018-04-20T01:02:29.059Z,10.70
2018-04-20T01:04:56.505Z,9.80
2018-04-20T01:07:23.937Z,10.77
2018-04-20T01:09:51.401Z,10.20
2018-04-20T01:12:18.837Z,11.43
2018-04-20T01:14:46.368Z,10.33
2018-04-20T01:17:13.808Z,11.30
2018-04-20T01:19:41.240Z,10.90
2018-04-20T01:22:08.674Z,10.57
2018-04-20T01:24:36.118Z,10.30
2018-04-20T01:27:03.553Z,11.00
2018-04-20T01:29:30.989Z,10.67
2018-04-20T01:31:58.433Z,10.17
2018-04-20T01:34:25.864Z,10.57
2018-04-20T01:39:27.090Z,10.70
2018-04-20T01:41:54.520Z,11.13
2018-04-20T01:44:21.946Z,10.47
2018-04-20T01:46:49.401Z,10.63
2018-04-20T01:49:16.828Z,11.70
2018-04-20T01:51:44.256Z,11.40
2018-04-20T01:54:11.705Z,10.70
2018-04-20T01:56:39.179Z,11.50
2018-04-20T01:59:06.612Z,11.10
2018-04-20T02:01:34.068Z,10.67
2018-04-20T02:04:01.504Z,10.70
2018-04-20T02:06:28.937Z,10.40
2018-04-20T02:08:56.384Z,10.60
2018-04-20T02:11:23.850Z,10.47
2018-04-20T02:13:51.284Z,9.47
2018-04-20T02:16:18.726Z,9.67
2018-04-20T02:18:46.194Z,8.80
2018-04-20T02:21:13.663Z,9.47
2018-04-20T02:23:41.098Z,9.43
2018-04-20T02:26:08.532Z,9.33
2018-04-20T02:28:35.965Z,9.97
2018-04-20T02:31:03.480Z,9.60
2018-04-20T02:33:30.923Z,10.37
2018-04-20T02:35:58.373Z,10.10
2018-04-20T02:38:25.857Z,10.03
2018-04-20T02:40:53.281Z,8.50
2018-04-20T02:43:20.764Z,11.10
2018-04-20T02:45:48.200Z,9.73
2018-04-20T02:48:15.681Z,10.50
2018-04-20T02:50:43.113Z,10.27
2018-04-20T02:53:10.549Z,10.30
2018-04-20T02:55:37.989Z,10.27
2018-04-20T02:58:05.409Z,9.43
2018-04-20T03:00:32.850Z,10.00
2018-04-20T03:03:00.284Z,10.20
2018-04-20T03:05:27.706Z,10.50
2018-04-20T03:07:55.236Z,9.90
2018-04-20T03:10:22.589Z,9.87
2018-04-20T03:12:50.022Z,10.80
2018-04-20T03:15:17.470Z,9.97
2018-04-20T03:17:44.914Z,10.63
2018-04-20T03:20:12.349Z,10.77
2018-04-20T03:22:39.874Z,10.73
2018-04-20T03:25:07.335Z,10.00
2018-04-20T03:27:34.789Z,10.37
2018-04-20T03:30:02.225Z,9.50
2018-04-20T03:32:29.678Z,10.57
2018-04-20T03:34:57.169Z,10.60
2018-04-20T03:37:24.627Z,11.10
2018-04-20T03:39:52.079Z,12.67
2018-04-20T03:42:19.505Z,13.33
2018-04-20T03:44:46.961Z,11.00
2018-04-20T03:47:14.386Z,11.20
2018-04-20T03:49:41.816Z,10.27
2018-04-20T03:52:09.257Z,10.50
2018-04-20T03:54:36.828Z,10.30
2018-04-20T03:57:04.276Z,11.70
2018-04-20T03:59:31.744Z,9.80
2018-04-20T04:01:59.218Z,10.60
2018-04-20T04:04:26.824Z,11.10
2018-04-20T04:06:54.307Z,10.80
2018-04-20T04:09:21.736Z,10.13
2018-04-20T04:11:49.156Z,12.00
2018-04-20T04:14:16.592Z,10.77
2018-04-20T04:16:56.220Z,11.53
2018-04-20T04:19:35.836Z,11.23
2018-04-20T04:22:15.226Z,12.27
2018-04-20T04:24:54.709Z,12.17
2018-04-20T04:27:34.797Z,11.33
2018-04-20T04:30:02.234Z,10.90
2018-04-20T04:32:29.662Z,10.40
2018-04-20T04:34:57.130Z,10.53
2018-04-20T04:37:24.536Z,12.30
2018-04-20T04:39:52.073Z,10.70
2018-04-20T04:42:19.508Z,12.10
2018-04-20T04:44:46.952Z,11.47
2018-04-20T04:47:14.384Z,12.00
2018-04-20T04:49:41.908Z,11.50
2018-04-20T04:52:09.364Z,12.40
2018-04-20T04:54:36.796Z,11.67
2018-04-20T04:57:04.278Z,11.67
2018-04-20T04:59:31.716Z,11.40
2018-04-20T05:01:59.191Z,12.07
2018-04-20T05:04:26.635Z,11.93
2018-04-20T05:06:54.081Z,11.60
2018-04-20T05:09:21.521Z,11.83
2018-04-20T05:11:49.021Z,11.57
2018-04-20T05:14:16.465Z,11.30
2018-04-20T05:16:44.040Z,11.37
2018-04-20T05:19:11.488Z,11.47
2018-04-20T05:21:38.929Z,10.97
2018-04-20T05:24:06.361Z,10.53
2018-04-20T05:26:33.869Z,10.27
2018-04-20T05:29:01.331Z,10.30
2018-04-20T05:31:28.765Z,10.10
2018-04-20T05:33:56.199Z,9.40
2018-04-20T05:36:23.636Z,9.43
2018-04-20T05:38:51.068Z,10.37
2018-04-20T05:41:18.507Z,10.00
2018-04-20T05:43:45.949Z,10.93
2018-04-20T05:46:13.381Z,10.27
2018-04-20T05:48:40.832Z,10.37
2018-04-20T05:51:08.282Z,10.80
2018-04-20T05:53:35.724Z,10.70
2018-04-20T05:56:03.160Z,10.90
2018-04-20T05:58:30.606Z,10.00
2018-04-20T06:00:58.042Z,10.07
2018-04-20T06:03:25.479Z,10.27
2018-04-20T06:05:52.930Z,10.70
2018-04-20T06:08:20.365Z,9.40
2018-04-20T06:10:47.797Z,10.90
2018-04-20T06:13:15.254Z,10.60
2018-04-20T06:15:42.686Z,11.07
2018-04-20T06:18:10.119Z,11.43
2018-04-20T06:20:37.561Z,11.40
2018-04-20T06:23:04.997Z,11.57
2018-04-20T06:25:32.431Z,12.30
2018-04-20T06:27:59.881Z,12.23
2018-04-20T06:30:27.313Z,12.10
2018-04-20T06:32:54.843Z,11.73
2018-04-20T06:35:22.256Z,13.00
2018-04-20T06:37:49.700Z,12.40
2018-04-20T06:40:17.178Z,11.63
2018-04-20T06:42:44.620Z,12.20
2018-04-20T06:45:12.060Z,13.00
2018-04-20T06:47:39.532Z,13.10
2018-04-20T06:50:07.008Z,13.20
2018-04-20T06:52:34.438Z,12.60
2018-04-20T06:55:01.877Z,12.80
2018-04-20T06:57:29.324Z,12.63
2018-04-20T06:59:56.764Z,12.90
2018-04-20T07:02:24.202Z,14.17
2018-04-20T07:04:52.377Z,13.33
2018-04-20T07:07:19.818Z,12.97
2018-04-20T07:09:47.258Z,12.00
2018-04-20T07:12:14.785Z,12.90
2018-04-20T07:14:42.175Z,11.17
2018-04-20T07:17:09.636Z,12.13
2018-04-20T07:19:37.088Z,11.13
2018-04-20T07:22:04.529Z,11.87
2018-04-20T07:24:32.025Z,26.03
2018-04-20T07:26:59.477Z,10.47
2018-04-20T07:29:26.897Z,9.87
2018-04-20T07:31:54.381Z,9.60
2018-04-20T07:34:21.841Z,8.97
2018-04-20T07:36:49.271Z,8.87
2018-04-20T07:39:16.697Z,8.10
2018-04-20T07:41:44.158Z,7.07
2018-04-20T07:44:11.594Z,8.57
2018-04-20T07:46:39.036Z,7.03
2018-04-20T07:49:06.476Z,7.17
2018-04-20T07:51:34.194Z,8.57
2018-04-20T07:54:01.628Z,6.40
2018-04-20T07:56:29.061Z,6.73
2018-04-20T07:58:56.494Z,6.63
2018-04-20T08:01:23.924Z,7.03
2018-04-20T08:03:51.355Z,6.73
2018-04-20T08:06:18.782Z,6.73
2018-04-20T08:08:46.210Z,7.57
2018-04-20T08:11:13.674Z,7.07
2018-04-20T08:13:41.093Z,6.63
2018-04-20T08:16:08.534Z,10.40
2018-04-20T08:18:35.974Z,7.00
2018-04-20T08:21:03.403Z,6.90
2018-04-20T08:23:30.881Z,6.60
2018-04-20T08:25:58.449Z,6.50
2018-04-20T08:28:25.873Z,5.90
2018-04-20T08:30:53.305Z,6.00
2018-04-20T08:33:20.751Z,5.57
2018-04-20T08:35:48.273Z,6.47
2018-04-20T08:38:15.725Z,6.87
2018-04-20T08:40:43.157Z,7.50
2018-04-20T08:43:10.649Z,6.07
2018-04-20T08:45:38.069Z,7.27
2018-04-20T08:48:05.516Z,6.83
2018-04-20T08:50:33.017Z,6.27
2018-04-20T08:53:00.436Z,6.23
2018-04-20T08:55:27.888Z,6.43
2018-04-20T08:57:55.317Z,5.80
2018-04-20T09:00:22.740Z,7.00
2018-04-20T09:02:50.211Z,6.00
2018-04-20T09:05:17.646Z,7.00
2018-04-20T09:07:45.079Z,8.93
2018-04-20T09:10:12.537Z,11.13
2018-04-20T09:12:39.964Z,6.30
2018-04-20T09:15:07.388Z,6.13
2018-04-20T09:17:34.837Z,6.57
2018-04-20T09:20:02.267Z,5.37
2018-04-20T09:22:29.694Z,5.80
2018-04-20T09:24:57.169Z,5.80
2018-04-20T09:27:24.597Z,5.70
2018-04-20T09:29:52.121Z,4.50
2018-04-20T09:32:19.557Z,5.40
2018-04-20T09:34:47.049Z,5.30
2018-04-20T09:37:14.469Z,4.13
2018-04-20T09:39:42.000Z,4.50
2018-04-20T09:42:09.346Z,4.60
2018-04-20T09:44:36.765Z,4.30
2018-04-20T09:47:04.193Z,3.83
2018-04-20T09:49:31.617Z,4.20
2018-04-20T09:51:59.137Z,4.03
2018-04-20T09:54:26.581Z,3.90
2018-04-20T09:56:54.009Z,4.63
2018-04-20T09:59:21.512Z,4.53
2018-04-20T10:01:48.945Z,3.40
2018-04-20T10:04:18.320Z,3.93
2018-04-20T10:06:45.836Z,3.83
2018-04-20T10:09:13.272Z,4.00
2018-04-20T10:11:40.718Z,4.13
2018-04-20T10:14:08.210Z,4.77
2018-04-20T10:16:35.662Z,3.80
2018-04-20T10:19:04.048Z,3.70
2018-04-20T10:21:34.453Z,3.60
2018-04-20T10:24:01.934Z,3.53
2018-04-20T10:26:29.361Z,3.90
2018-04-20T10:28:56.802Z,3.33
2018-04-20T10:31:24.250Z,2.97
2018-04-20T10:33:51.748Z,3.20
2018-04-20T10:36:19.218Z,3.10
2018-04-20T10:38:46.649Z,2.73
2018-04-20T10:41:14.082Z,3.23
2018-04-20T10:43:41.507Z,3.70
2018-04-20T10:46:08.970Z,3.20
2018-04-20T10:48:36.431Z,3.40
2018-04-20T10:51:03.805Z,3.30
2018-04-20T10:53:31.256Z,3.57
2018-04-20T10:55:58.762Z,3.23
2018-04-20T10:58:26.207Z,2.93
2018-04-20T11:00:53.677Z,3.50
2018-04-20T11:03:21.113Z,3.17
2018-04-20T11:05:48.549Z,2.90
2018-04-20T11:08:15.989Z,2.60
2018-04-20T11:10:43.428Z,4.70
2018-04-20T11:13:11.196Z,3.30
2018-04-20T11:15:38.634Z,2.77
2018-04-20T11:18:06.084Z,3.43
2018-04-20T11:20:33.528Z,2.23
2018-04-20T11:23:00.998Z,3.57
2018-04-20T11:25:28.435Z,2.67
2018-04-20T11:27:55.983Z,2.57
2018-04-20T11:30:23.430Z,3.10
2018-04-20T11:32:50.929Z,2.70
2018-04-20T11:35:18.406Z,2.77
2018-04-20T11:37:45.811Z,2.53
2018-04-20T11:40:13.301Z,2.53
2018-04-20T11:42:40.752Z,2.40
2018-04-20T11:45:08.215Z,4.87
2018-04-20T11:47:35.672Z,11.97
2018-04-20T11:50:03.131Z,2.77
2018-04-20T11:52:30.866Z,2.97
2018-04-20T11:54:58.347Z,2.58
2018-04-20T11:57:25.778Z,2.28
2018-04-20T11:59:53.226Z,2.47
2018-04-20T12:02:20.649Z,2.53
2018-04-20T12:04:48.085Z,2.78
2018-04-20T12:07:15.530Z,3.03
2018-04-20T12:09:42.956Z,2.50
2018-04-20T12:12:10.378Z,2.58
2018-04-20T12:14:37.876Z,2.40
2018-04-20T12:17:05.301Z,2.50
2018-04-20T12:19:32.733Z,2.37
2018-04-20T12:22:00.169Z,2.67
2018-04-20T12:24:27.625Z,2.40
2018-04-20T12:26:55.066Z,2.30
2018-04-20T12:29:22.502Z,2.30
2018-04-20T12:31:49.932Z,2.12
2018-04-20T12:34:17.361Z,2.10
2018-04-20T12:36:44.796Z,4.75
2018-04-20T12:39:12.217Z,2.37
2018-04-20T12:41:39.644Z,2.33
2018-04-20T12:44:07.110Z,2.62
2018-04-20T12:46:34.517Z,2.60
2018-04-20T12:49:01.933Z,2.55
2018-04-20T12:51:29.374Z,1.98
2018-04-20T12:53:56.793Z,2.58
2018-04-20T12:56:24.213Z,2.53
2018-04-20T12:58:51.675Z,2.70
2018-04-20T13:01:19.113Z,2.45
2018-04-20T13:03:46.534Z,2.05
2018-04-20T13:06:13.965Z,2.30
2018-04-20T13:08:41.389Z,2.37
2018-04-20T13:11:08.813Z,2.25
2018-04-20T13:13:36.249Z,2.60
2018-04-20T13:16:03.665Z,2.35
2018-04-20T13:18:31.082Z,2.08
2018-04-20T13:20:58.526Z,5.65
2018-04-20T13:23:25.943Z,2.60
2018-04-20T13:25:53.369Z,10.55
2018-04-20T13:28:20.797Z,2.30
2018-04-20T13:30:48.225Z,2.00
2018-04-20T13:33:15.641Z,2.60
2018-04-20T13:35:43.081Z,2.25
2018-04-20T13:38:10.500Z,2.10
2018-04-20T13:40:37.925Z,2.03
2018-04-20T13:43:05.357Z,2.17
2018-04-20T13:45:32.782Z,1.87
2018-04-20T13:48:00.198Z,2.00
2018-04-20T13:50:27.633Z,6.33
2018-04-20T13:52:55.053Z,2.17
2018-04-20T13:55:22.485Z,2.12
2018-04-20T13:57:49.916Z,1.98
2018-04-20T14:00:17.337Z,2.30
2018-04-20T14:02:44.758Z,2.28
2018-04-20T14:05:12.206Z,2.10
2018-04-20T14:07:39.628Z,2.10
2018-04-20T14:10:07.054Z,2.30
2018-04-20T14:12:34.489Z,2.00
2018-04-20T14:15:01.921Z,2.08
2018-04-20T14:17:29.342Z,1.80
2018-04-20T14:19:56.780Z,1.80
2018-04-20T14:22:24.200Z,2.20
2018-04-20T14:24:51.623Z,2.58
2018-04-20T14:27:19.049Z,1.80
2018-04-20T14:29:46.469Z,2.47
2018-04-20T14:32:13.893Z,8.70
2018-04-20T14:34:41.320Z,2.50
2018-04-20T14:37:08.747Z,2.03
2018-04-20T14:39:36.162Z,2.70
2018-04-20T14:42:03.592Z,2.20
2018-04-20T14:44:31.012Z,2.08
2018-04-20T14:46:58.437Z,1.80
2018-04-20T14:49:25.880Z,2.20
2018-04-20T14:51:54.112Z,1.83
2018-04-20T14:54:21.542Z,1.90
2018-04-20T14:56:48.978Z,2.45
2018-04-20T14:59:16.425Z,2.12
2018-04-20T15:01:43.887Z,2.10
2018-04-20T15:04:11.304Z,1.95
2018-04-20T15:06:38.736Z,2.22
2018-04-20T15:09:06.161Z,1.87
2018-04-20T15:11:33.615Z,2.05
2018-04-20T15:14:01.050Z,1.67
2018-04-20T15:16:28.470Z,2.03
2018-04-20T15:18:55.927Z,1.80
2018-04-20T15:21:23.357Z,2.67
2018-04-20T15:23:50.799Z,1.83
2018-04-20T15:26:18.243Z,2.00
2018-04-20T15:28:45.694Z,1.57
2018-04-20T15:31:13.144Z,2.47
2018-04-20T15:33:40.742Z,2.67
2018-04-20T15:36:08.284Z,3.30
2018-04-20T15:38:35.717Z,4.40
2018-04-20T15:41:03.442Z,2.37
2018-04-20T15:43:30.870Z,2.37
2018-04-20T15:45:58.389Z,6.13
2018-04-20T15:48:25.836Z,2.30
2018-04-20T15:50:53.266Z,2.00
2018-04-20T15:53:20.699Z,2.27
2018-04-20T15:55:48.150Z,2.20
2018-04-20T15:58:15.584Z,2.27
2018-04-20T16:00:43.010Z,2.30
2018-04-20T16:03:10.489Z,2.20
2018-04-20T16:05:37.918Z,4.10
2018-04-20T16:08:05.349Z,2.60
2018-04-20T16:10:32.957Z,2.63
2018-04-20T16:13:00.546Z,2.43
2018-04-20T16:15:28.001Z,2.90
2018-04-20T16:17:55.507Z,2.40
2018-04-20T16:20:23.013Z,2.93
2018-04-20T16:22:50.433Z,2.77
2018-04-20T16:25:17.917Z,2.60
2018-04-20T16:27:45.376Z,3.33
2018-04-20T16:30:12.807Z,3.00
2018-04-20T16:32:40.298Z,2.27
2018-04-20T16:35:07.841Z,2.90
2018-04-20T16:37:35.271Z,2.77
2018-04-20T16:40:02.801Z,2.20
2018-04-20T16:42:30.224Z,2.70
2018-04-20T16:44:57.704Z,2.37
2018-04-20T16:47:25.140Z,2.83
2018-04-20T16:49:52.581Z,2.72
2018-04-20T16:52:20.016Z,3.47
2018-04-20T16:54:47.518Z,4.03
2018-04-20T16:57:14.942Z,4.43
2018-04-20T16:59:42.378Z,6.50
2018-04-20T17:02:09.818Z,2.53
2018-04-20T17:04:37.259Z,2.77
2018-04-20T17:07:04.694Z,3.83
2018-04-20T17:09:32.137Z,3.20
2018-04-20T17:11:59.585Z,3.10
2018-04-20T17:14:27.055Z,36.93
2018-04-20T17:16:54.517Z,7.40
2018-04-20T17:19:21.937Z,2.60
2018-04-20T17:21:49.365Z,2.63
2018-04-20T17:24:16.988Z,4.77
2018-04-20T17:26:44.422Z,4.87
2018-04-20T17:29:11.850Z,3.80
2018-04-20T17:31:39.298Z,2.90
2018-04-20T17:34:06.726Z,3.20
2018-04-20T17:36:34.183Z,3.77
2018-04-20T17:39:01.642Z,3.30
2018-04-20T17:41:29.169Z,3.23
2018-04-20T17:43:57.234Z,11.73
2018-04-20T17:46:24.677Z,4.33
2018-04-20T17:48:52.102Z,5.07
2018-04-20T17:51:19.532Z,5.28
2018-04-20T17:53:46.975Z,2.87
2018-04-20T17:56:14.453Z,3.90
2018-04-20T17:58:41.950Z,6.70
2018-04-20T18:01:09.574Z,7.17
2018-04-20T18:03:37.834Z,6.80
2018-04-20T18:06:05.310Z,7.57
2018-04-20T18:08:32.749Z,13.63
2018-04-20T18:11:00.186Z,16.00
2018-04-20T18:13:27.623Z,7.47
2018-04-20T18:15:55.059Z,8.00
2018-04-20T18:18:22.513Z,8.73
2018-04-20T18:20:49.949Z,13.43
2018-04-20T18:23:17.391Z,7.17
2018-04-20T18:25:44.809Z,4.33
2018-04-20T18:28:12.253Z,2.77
2018-04-20T18:30:39.794Z,6.30
2018-04-20T18:33:07.237Z,4.43
2018-04-20T18:35:34.681Z,5.70
2018-04-20T18:38:02.204Z,4.40
2018-04-20T18:40:29.711Z,4.03
2018-04-20T18:42:57.613Z,4.43
2018-04-20T18:45:25.060Z,4.20
2018-04-20T18:47:52.484Z,4.60
2018-04-20T18:50:20.005Z,4.40
2018-04-20T18:52:47.376Z,2.90
2018-04-20T18:55:14.876Z,3.60
2018-04-20T18:57:42.305Z,3.20
2018-04-20T19:00:09.748Z,5.90
2018-04-20T19:02:37.173Z,2.37
2018-04-20T19:05:04.595Z,2.60
2018-04-20T19:07:32.029Z,6.60
2018-04-20T19:09:59.501Z,3.47
2018-04-20T19:12:26.921Z,3.90
2018-04-20T19:14:54.365Z,3.47
2018-04-20T19:17:21.789Z,3.30
2018-04-20T19:19:49.213Z,3.40
2018-04-20T19:22:16.691Z,3.80
2018-04-20T19:24:44.116Z,3.73
2018-04-20T19:27:11.599Z,6.10
2018-04-20T19:29:39.039Z,4.80
2018-04-20T19:32:07.321Z,7.00
2018-04-20T19:34:34.751Z,6.10
2018-04-20T19:37:02.193Z,4.70
2018-04-20T19:39:29.617Z,4.70
2018-04-20T19:41:57.067Z,4.67
2018-04-20T19:44:24.483Z,4.00
2018-04-20T19:46:51.966Z,3.90
2018-04-20T19:49:19.395Z,5.10
2018-04-20T19:51:46.837Z,4.30
2018-04-20T19:54:14.265Z,48.47
2018-04-20T19:56:41.705Z,6.00
2018-04-20T19:59:09.148Z,6.70
2018-04-20T20:01:36.815Z,6.60
2018-04-20T20:04:04.276Z,5.30
2018-04-20T20:06:31.728Z,15.80
2018-04-20T20:08:59.164Z,6.90
2018-04-20T20:11:26.642Z,6.60
2018-04-20T20:13:54.086Z,4.23
2018-04-20T20:16:21.515Z,4.63
2018-04-20T20:18:48.950Z,4.90
2018-04-20T20:21:16.469Z,5.40
2018-04-20T20:23:43.909Z,5.37
2018-04-20T20:26:11.338Z,6.23
2018-04-20T20:28:38.842Z,7.57
2018-04-20T20:31:06.399Z,6.80
2018-04-20T20:33:33.857Z,6.90
2018-04-20T20:36:01.306Z,6.73
2018-04-20T20:38:28.745Z,18.17
2018-04-20T20:40:56.263Z,7.50
2018-04-20T20:43:23.706Z,7.73
2018-04-20T20:45:51.246Z,6.77
2018-04-20T20:48:18.681Z,5.80
2018-04-20T20:50:46.126Z,6.00
2018-04-20T20:53:13.638Z,6.60
2018-04-20T20:55:41.113Z,4.93
2018-04-20T20:58:08.524Z,5.70
2018-04-20T21:00:35.962Z,5.50
2018-04-20T21:03:03.394Z,5.10
2018-04-20T21:05:30.836Z,5.50
2018-04-20T21:07:58.264Z,4.57
2018-04-20T21:10:25.732Z,4.30
2018-04-20T21:12:53.186Z,4.03
2018-04-20T21:15:20.625Z,4.27
2018-04-20T21:17:48.061Z,4.80
2018-04-20T21:20:16.449Z,5.00
2018-04-20T21:22:43.898Z,4.50
2018-04-20T21:25:11.390Z,3.60
2018-04-20T21:27:38.832Z,5.13
2018-04-20T21:30:06.264Z,4.30
2018-04-20T21:32:33.755Z,4.10
2018-04-20T21:35:01.193Z,4.73
2018-04-20T21:37:28.628Z,4.97
2018-04-20T21:39:56.065Z,4.47
2018-04-20T21:42:23.514Z,4.10
2018-04-20T21:44:51.049Z,4.37
2018-04-20T21:47:18.479Z,4.37
2018-04-20T21:49:45.969Z,4.80
2018-04-20T21:52:13.389Z,4.47
2018-04-20T21:54:40.868Z,4.70
2018-04-20T21:57:08.322Z,5.00
2018-04-20T21:59:35.750Z,5.17
2018-04-20T22:02:03.176Z,5.10
2018-04-20T22:04:30.695Z,5.50
2018-04-20T22:06:58.132Z,4.73
2018-04-20T22:09:25.587Z,4.43
2018-04-20T22:11:53.028Z,4.50
2018-04-20T22:14:20.469Z,4.80
2018-04-20T22:16:47.909Z,4.70
2018-04-20T22:19:15.354Z,4.30
2018-04-20T22:21:42.795Z,4.17
2018-04-20T22:24:11.146Z,4.20
2018-04-20T22:26:38.614Z,4.37
2018-04-20T22:29:06.049Z,4.00
2018-04-20T22:31:33.513Z,4.43
2018-04-20T22:34:00.960Z,3.93
2018-04-20T22:36:28.462Z,4.30
2018-04-20T22:38:55.881Z,4.63
2018-04-20T22:41:23.330Z,4.30
2018-04-20T22:43:50.838Z,4.50
2018-04-20T22:46:18.265Z,4.20
2018-04-20T22:48:45.729Z,4.33
2018-04-20T22:51:13.205Z,4.93
2018-04-20T22:53:40.637Z,4.60
2018-04-20T22:56:08.081Z,4.87
2018-04-20T22:58:35.572Z,5.00
2018-04-20T23:01:03.009Z,5.50
2018-04-20T23:03:30.449Z,5.33
2018-04-20T23:05:57.872Z,5.00
2018-04-20T23:08:25.296Z,4.80
2018-04-20T23:10:52.755Z,4.63
2018-04-20T23:13:20.186Z,5.50
2018-04-20T23:15:47.621Z,7.30
2018-04-20T23:18:15.125Z,5.27
2018-04-20T23:20:42.553Z,6.30
2018-04-20T23:23:09.969Z,5.07
2018-04-20T23:25:37.397Z,5.10
2018-04-20T23:28:04.832Z,6.10
2018-04-20T23:30:32.321Z,5.83
2018-04-20T23:32:59.754Z,6.13
2018-04-20T23:35:27.178Z,5.70
2018-04-20T23:37:54.933Z,6.10
2018-04-20T23:40:22.382Z,5.67
2018-04-20T23:42:49.815Z,6.50
2018-04-20T23:45:17.249Z,6.23
2018-04-20T23:47:44.690Z,5.90
2018-04-20T23:50:12.181Z,7.43
2018-04-20T23:52:39.612Z,6.70
2018-04-20T23:55:07.045Z,6.50
2018-04-20T23:57:34.476Z,7.33
